Decoded Metar for LEMH (MAHON in SPAIN) (IATA:MAH) | Meteo·Mobile Aviation Weather
aviador You're here:

LEMH Decoded Metar

MAHON in SPAIN
Report Time2020-02-23 10:00:00
UTC Time2020-02-23 10:15:48
Flight Rules vfr VFR
Wind270° at 08 kt
W.Decomp.*RWY 19: 1.5 kt HW 7.9 kt RCW
Visibility9999 m
Phenomena:N/A
Clouds:Few 012 Hf
Expected CloudBase > 1,200 ft AGL from Temp-Dew spread
CeilingNone
Temp15°C (ISA +1)
Dew Point12°C (82% RH)
AAT12.7°C
QNH1034 hPa
Density Alt-184 ft
Elevation269 ft
Report Wrong Elevation
Raw Report
LEMH 231000Z 27008KT 210V330 9999 FEW012 15/12 Q1034=

Extra information for LEMH:More info

Metar Taf Metar & Taf Last 4 Metars F.Rules Stats Wind Profile Meteogram Temp Stats Airport Information Weather charts Add Link Nearby VenuesMetar ALERT Operation Metar Decoded Social comments